Wichita, KS

8:16 AM CDT on September 20, 2014 (GMT -0500)
McConnell Air Force Base | Change Station
CLOSE
Current Station
Airport
Location: McConnell AFB,
Elevation: 1371 ft
Nearby Weather Stations
4.0 Earthquake: Medford, Oklahoma (1 day ago)  

Elev 1371 ft 37.62 °N, 97.27 °W | Updated 18 minutes ago

Clear
Clear
68 °F
Feels Like 68 °F
N
9
Wind Variable Wind from South

Today
High -- | Low -- °F
--% Chance of Precip.
Yesterday
High -- | Low -- °F
Precip. -- in
7:15 AM 7:29 PM
Waning Crescent, 12% visible
Pressure 29.96 in
Visibility 5.0 miles
Clouds Clear
Dew Point 68 °F
Humidity 99%
Rainfall 0.00 in
Snow Depth Not available.
UV 0 out of 12
Pollen 6.30 out of 12
Air Quality Not available.
Flu Activity Not available.
METAR KIAB 201258Z AUTO 17008KT 5SM BR CLR 20/20 A2998 RMK AO2 SLP144 T01980197

More Conditions Fewer Conditions

Pressure 29.96 in
Visibility 5.0 miles
Clouds Clear
Dew Point 68 °F
Humidity 99%
Rainfall 0.00 in
Snow Depth Not available.
UV 0 out of 12
Pollen 6.30 out of 12
Air Quality Not available.
Flu Activity Not available.
METAR KIAB 201258Z AUTO 17008KT 5SM BR CLR 20/20 A2998 RMK AO2 SLP144 T01980197

More Conditions Fewer Conditions

10-Day Weather Forecast

Almanac

Astronomy

Sep. 20, 2014 Rise Set
Actual Time 7:15 AM CDT 7:29 PM CDT
Civil Twilight 6:49 AM CDT 7:55 PM CDT
Nautical Twilight 6:18 AM CDT 8:25 PM CDT
Astronomical Twilight 5:47 AM CDT 8:56 PM CDT
Moon 3:58 AM CDT 5:30 PM CDT
Length of Visible Light 13h 06m
Length of Day
12h 13m
Tomorrow will be 2m 23s shorter.
Waning Crescent, 12% of the Moon is Illuminated
Today
Waning Crescent
Sep 24
New
Oct 1
First Quarter
Oct 8
Full
Oct 15
Last Quarter

Today's Extremes

State Highs State Lows

Community

WunderPhotos

Upload Photos

1,754,853 photos uploaded!

Nearby

Snow Depth

Station Depth Elevation
No new snow has been reported.

Earthquake Activity

City Distance Mag. Time & Date
Medford, Oklahoma 61 miles 3.2 2:10 AM CDT
2014-09-20
Luther, Oklahoma 135 miles 2.7 4:47 PM CDT
2014-09-19
Guthrie, Oklahoma 124 miles 3.9 12:23 PM CDT
2014-09-19
Perry, Oklahoma 99 miles 3.3 12:08 AM CDT
2014-09-19
Minimum magnitude displayed is 2.5.

Coastal Water Temperatures

Place Temperature
No Stations Reporting

Nearby Weather Stations